KOEB

Branch County Memorial Airport

Coldwater, Michigan, USA
METAR KOEB 171926Z AUTO 14010G18KT 1 1/4SM +RA SCT007 BKN014 OVC041 21/20 A2995 RMK AO2 T02050202
Observed Flight Rules
Aug-17 @ 19:26 UTC (19 hours ago) Instrument Flight Rules
Wind Visibility Clouds Conditions
140° at 10 knots
 Gusting to 18 knots
1 1/4 miles
  • Scattered at 700' AGL
  • Broken at 1,400' AGL
  • Overcast at 4,100' AGL
  • Heavy Rain
Temperatures Readings
Current 21°C / 70°F
Dewpoint 20°C / 68°F
Humidity 94%
Altimeter 29.95" Hg
Pressure 1014 hPa
Elevation 292
METAR KOEB 171926Z AUTO 14010G18KT 1 1/4SM +RA SCT007 BKN014 OVC041 21/20 A2995 RMK AO2 T02050202
Observed Flight Rules
Aug-17 @ 19:26 UTC
(19 hours ago)
IFR
Wind Visibility
140° at 10 knots
 Gusting to 18 knots
1 1/4 miles
Clouds
  • Scattered at 700' AGL
  • Broken at 1,400' AGL
  • Overcast at 4,100' AGL
Conditions
  • Heavy Rain
Temperature Dewpoint
21°C / 70°F 20°C / 68°F
Humidity Altimeter Pressure
94% 29.95" Hg 1014 hPa